WetterOnline ( https://www.wetteronline.de )

Wetter aktuell Putgarten

Aktuelles Wetter: Kap Arkona/Rügen (42m)

6-stündlich | Neueste Meldungen
Ortszeit Temperatur Wetter
Fr, 17.01. 19:00 5.8° C wolkenlos
Fr, 17.01. 13:00 6.3° C wolkenlos
Fr, 17.01. 7:00 4.0° C wolkig
Fr, 17.01. 1:00 5.3° C wolkenlos
Do, 16.01. 19:00 4.1° C wolkenlos
Do, 16.01. 13:00 6.1° C bewölkt
Do, 16.01. 7:00 5.3° C leicht bewölkt
Do, 16.01. 1:00 5.9° C wolkig
Ortszeit Temperatur Wetter
Sa, 18.01. 0:00 4.5° C bedeckt
Fr, 17.01. 23:40 4.6° C bedeckt
Fr, 17.01. 23:30 4.6° C bedeckt
Fr, 17.01. 23:20 4.6° C bedeckt
Fr, 17.01. 23:10 4.5° C bedeckt
Fr, 17.01. 23:00 4.5° C bedeckt
Fr, 17.01. 22:50 4.5° C bedeckt
Fr, 17.01. 22:30 4.3° C wolkig
Fr, 17.01. 22:00 4.8° C wolkig
Ortszeit Relative Feuchte Sichtweite
Fr, 17.01. 19:00 82% 22 km
Fr, 17.01. 13:00 80% 15 km
Fr, 17.01. 7:00 93% 11 km
Fr, 17.01. 1:00 87% 30 km
Do, 16.01. 19:00 94% 22 km
Do, 16.01. 13:00 87% 18 km
Do, 16.01. 7:00 89% 27 km
Do, 16.01. 1:00 91% 35 km
Ortszeit Relative Feuchte Sichtweite
Sa, 18.01. 0:00 87% 16 km
Fr, 17.01. 23:40 87% -
Fr, 17.01. 23:30 86% 17 km
Fr, 17.01. 23:20 86% -
Fr, 17.01. 23:10 87% -
Fr, 17.01. 23:00 87% 17 km
Fr, 17.01. 22:50 87% -
Fr, 17.01. 22:30 86% 19 km
Fr, 17.01. 22:00 85% 20 km
Ortszeit Niederschlagsmenge Niederschlagsart
Fr, 17.01. 19:00 0.0 l/m2 in 12 Std. -
Fr, 17.01. 13:00 0.0 l/m2 in 6 Std. -
Fr, 17.01. 7:00 0.0 l/m2 in 12 Std. -
Fr, 17.01. 1:00 0.0 l/m2 in 6 Std. -
Do, 16.01. 19:00 0.0 l/m2 in 12 Std. -
Do, 16.01. 13:00 0.0 l/m2 in 6 Std. -
Do, 16.01. 7:00 0.1 l/m2 in 12 Std. -
Do, 16.01. 1:00 0.1 l/m2 in 6 Std. Regen
Ortszeit Niederschlagsmenge Niederschlagsart
Sa, 18.01. 0:00 0.0 l/m2 in 1 Std. -
Fr, 17.01. 23:40 keine Meldung -
Fr, 17.01. 23:30 0.0 l/m2 in 1 Std. -
Fr, 17.01. 23:20 keine Meldung -
Fr, 17.01. 23:10 keine Meldung -
Fr, 17.01. 23:00 0.0 l/m2 in 1 Std. -
Fr, 17.01. 22:50 keine Meldung -
Fr, 17.01. 22:30 0.0 l/m2 in 1 Std. -
Fr, 17.01. 22:00 0.0 l/m2 in 1 Std. -
Ortszeit Stärke Spitze Richtung
km/h Bft. km/h Grad Sektor
Fr, 17.01. 19:00 31 5 43 190° S
Fr, 17.01. 13:00 28 4 44 190° S
Fr, 17.01. 7:00 30 5 41 180° S
Fr, 17.01. 1:00 24 4 35 180° S
Do, 16.01. 19:00 25 4 40 220° SW
Do, 16.01. 13:00 30 5 52 240° SW
Do, 16.01. 7:00 31 5 54 240° SW
Do, 16.01. 1:00 32 5 72 250° W
Ortszeit Stärke Spitze Richtung
km/h Bft. km/h Grad Sektor
Sa, 18.01. 0:00 25 4 32 210° SW
Fr, 17.01. 23:40 25 4 - 210° SW
Fr, 17.01. 23:30 25 4 32 200° S
Fr, 17.01. 23:20 25 4 - 200° S
Fr, 17.01. 23:10 25 4 - 200° S
Fr, 17.01. 23:00 25 4 32 200° S
Fr, 17.01. 22:50 25 4 - 200° S
Fr, 17.01. 22:30 25 4 32 200° S
Fr, 17.01. 22:00 24 4 31 190° S
Ortszeit Untergrenze Bedeckung Gattung
total tief tief mittel hoch
Fr, 17.01. 19:00 - 0/8 0/8 - - -
Fr, 17.01. 13:00 - 0/8 0/8 - - -
Fr, 17.01. 7:00 9000 m 7/8 0/8 - - -
Fr, 17.01. 1:00 - 0/8 0/8 - - -
Do, 16.01. 19:00 - 0/8 0/8 - - -
Do, 16.01. 13:00 420 m 7/8 7/8 - - -
Do, 16.01. 7:00 690 m 3/8 3/8 - - -
Do, 16.01. 1:00 7500 m 8/8 0/8 - - -
Ortszeit Bedeckungsgrad in Achtel und Wolkenuntergrenze
Sa, 18.01. 0:00 8(780m)
Fr, 17.01. 23:40 8(810m)
Fr, 17.01. 23:30 8(870m)
Fr, 17.01. 23:20 8(870m)
Fr, 17.01. 23:10 8(870m)
Fr, 17.01. 23:00 8(870m) 8(6900m)
Fr, 17.01. 22:50 8(870m) 8(6900m)
Fr, 17.01. 22:30 8(7200m) 8(7200m) 8(7800m)
Fr, 17.01. 22:00 7(7800m) 8(8400m)
Ortszeit Luftdruck NN (hPa) Tendenz (hPa in 3 Std.)
Fr, 17.01. 19:00 1014 - 1,3
Fr, 17.01. 13:00 1018 - 2,4
Fr, 17.01. 7:00 1022 - 1,3
Fr, 17.01. 1:00 1025 - 1,8
Do, 16.01. 19:00 1027 + 0,3
Do, 16.01. 13:00 1026 + 1,3
Do, 16.01. 7:00 1022 + 2,5
Do, 16.01. 1:00 1016 + 5,2
Ortszeit Luftdruck NN (hPa) Tendenz (hPa in 3 Std.)
Sa, 18.01. 0:00 1012 - 0,8
Fr, 17.01. 23:40 1012 keine Meldung
Fr, 17.01. 23:30 1013 - 0,8
Fr, 17.01. 23:20 1013 keine Meldung
Fr, 17.01. 23:10 1012 keine Meldung
Fr, 17.01. 23:00 1012 - 1,2
Fr, 17.01. 22:50 1012 keine Meldung
Fr, 17.01. 22:30 1013 - 1,1
Fr, 17.01. 22:00 1013 - 1,2
Ortszeit Schneehöhe (cm)
Fr, 17.01. 19:00 0
Fr, 17.01. 13:00 0
Fr, 17.01. 7:00 0
Fr, 17.01. 1:00 0
Do, 16.01. 19:00 0
Do, 16.01. 13:00 0
Do, 16.01. 7:00 0
Do, 16.01. 1:00 0
Ortszeit Schneehöhe (cm)
Sa, 18.01. 0:00 0
Fr, 17.01. 23:40 0
Fr, 17.01. 23:30 0
Fr, 17.01. 23:20 0
Fr, 17.01. 23:10 0
Fr, 17.01. 23:00 0
Fr, 17.01. 22:50 0
Fr, 17.01. 22:30 0
Fr, 17.01. 22:00 0
Link zu dieser Seite / Seite empfehlen

Das Wetter in ...